createdAt,value
2019-06-10T00:00:13.580Z,99.90
2019-06-10T00:05:17.587Z,99.90
2019-06-10T00:10:21.457Z,99.90
2019-06-10T00:15:31.406Z,99.90
2019-06-10T00:20:34.504Z,99.90
2019-06-10T00:25:37.227Z,99.90
2019-06-10T00:30:41.098Z,99.90
2019-06-10T00:35:44.273Z,99.90
2019-06-10T00:40:47.297Z,99.90
2019-06-10T00:45:51.329Z,99.90
2019-06-10T00:50:54.383Z,99.90
2019-06-10T00:55:57.116Z,99.90
2019-06-10T01:01:01.113Z,99.90
2019-06-10T01:06:04.701Z,99.90
2019-06-10T01:17:21.307Z,99.90
2019-06-10T01:22:24.194Z,99.90
2019-06-10T01:27:26.976Z,99.90
2019-06-10T01:32:31.226Z,99.90
2019-06-10T01:37:34.183Z,99.90
2019-06-10T01:42:36.964Z,99.90
2019-06-10T01:47:41.640Z,99.90
2019-06-10T01:52:44.559Z,99.90
2019-06-10T01:57:47.514Z,99.90
2019-06-10T02:02:52.419Z,99.90
2019-06-10T02:07:55.057Z,99.90
2019-06-10T02:12:57.757Z,99.90
2019-06-10T02:18:01.131Z,99.90
2019-06-10T02:28:51.239Z,99.90
2019-06-10T02:33:54.317Z,99.90
2019-06-10T02:38:57.127Z,99.90
2019-06-10T02:43:59.905Z,99.90
2019-06-10T02:49:21.373Z,99.90
2019-06-10T02:54:07.520Z,99.90
2019-06-10T02:59:13.065Z,99.90
2019-06-10T03:04:16.367Z,99.90
2019-06-10T03:09:24.490Z,99.90
2019-06-10T03:14:25.394Z,99.90
2019-06-10T03:19:41.865Z,99.90
2019-06-10T03:24:32.884Z,99.90
2019-06-10T03:29:36.061Z,99.90
2019-06-10T03:34:43.018Z,99.90
2019-06-10T03:39:44.884Z,99.90
2019-06-10T03:44:47.745Z,99.90
2019-06-10T03:49:53.469Z,99.90
2019-06-10T03:54:55.640Z,99.90
2019-06-10T03:59:58.551Z,99.90
2019-06-10T04:05:02.726Z,99.90
2019-06-10T04:10:05.972Z,99.90
2019-06-10T04:15:08.785Z,99.90
2019-06-10T04:20:14.970Z,99.90
2019-06-10T04:25:17.681Z,99.90
2019-06-10T04:30:24.344Z,99.90
2019-06-10T04:35:26.529Z,99.90
2019-06-10T04:40:32.808Z,99.90
2019-06-10T04:45:37.951Z,99.90
2019-06-10T04:50:45.611Z,99.90
2019-06-10T04:55:45.668Z,99.90
2019-06-10T05:00:48.829Z,99.90
2019-06-10T05:05:52.565Z,99.90
2019-06-10T05:10:55.664Z,99.90
2019-06-10T05:15:58.327Z,99.90
2019-06-10T05:21:02.751Z,99.90
2019-06-10T05:26:05.774Z,99.90
2019-06-10T05:31:08.489Z,99.90
2019-06-10T05:36:13.054Z,99.90
2019-06-10T05:41:15.788Z,99.90
2019-06-10T05:46:18.465Z,99.90
2019-06-10T05:51:23.153Z,99.90
2019-06-10T05:56:27.176Z,99.90
2019-06-10T06:01:30.045Z,99.90
2019-06-10T06:06:35.180Z,99.90
2019-06-10T06:11:37.775Z,99.90
2019-06-10T06:16:43.850Z,99.90
2019-06-10T06:21:47.880Z,99.90
2019-06-10T06:26:53.239Z,99.90
2019-06-10T06:31:55.496Z,99.90
2019-06-10T06:36:58.403Z,99.90
2019-06-10T06:42:02.258Z,99.90
2019-06-10T06:47:05.029Z,99.90
2019-06-10T06:52:07.920Z,99.90
2019-06-10T06:57:12.916Z,99.90
2019-06-10T07:02:15.368Z,99.90
2019-06-10T07:07:19.435Z,99.90
2019-06-10T07:12:23.831Z,99.90
2019-06-10T07:17:27.550Z,99.90
2019-06-10T07:22:32.247Z,99.90
2019-06-10T07:27:37.558Z,99.90
2019-06-10T07:32:41.526Z,99.90
2019-06-10T07:37:45.837Z,99.90
2019-06-10T07:42:48.877Z,99.90
2019-06-10T07:47:52.282Z,99.90
2019-06-10T07:52:55.102Z,99.90
2019-06-10T07:57:57.828Z,99.90
2019-06-10T08:03:02.459Z,99.90
2019-06-10T08:08:05.194Z,99.90
2019-06-10T08:13:07.800Z,99.90
2019-06-10T08:18:12.986Z,99.90
2019-06-10T08:23:16.374Z,99.90
2019-06-10T08:28:19.204Z,99.90
2019-06-10T08:33:22.772Z,99.90
2019-06-10T08:38:25.754Z,99.90
2019-06-10T08:43:28.496Z,99.90
2019-06-10T08:48:32.895Z,99.90
2019-06-10T08:53:37.337Z,99.90
2019-06-10T08:58:41.055Z,99.90
2019-06-10T09:03:48.627Z,99.90
2019-06-10T09:08:51.093Z,99.90
2019-06-10T09:13:53.876Z,99.90
2019-06-10T09:18:56.645Z,99.90
2019-06-10T09:24:00.571Z,99.90
2019-06-10T09:29:04.239Z,99.90
2019-06-10T09:34:08.044Z,99.90
2019-06-10T09:39:12.546Z,99.90
2019-06-10T09:44:15.462Z,99.90
2019-06-10T09:49:18.848Z,99.90
2019-06-10T09:54:22.792Z,99.90
2019-06-10T09:59:25.858Z,99.90
2019-06-10T10:04:28.763Z,99.90
2019-06-10T10:09:36.772Z,99.90
2019-06-10T10:14:36.655Z,99.90
2019-06-10T10:19:39.519Z,99.90
2019-06-10T10:24:43.883Z,99.90
2019-06-10T10:29:48.865Z,99.90
2019-06-10T10:34:52.482Z,99.90
2019-06-10T10:39:56.571Z,99.90
2019-06-10T10:45:02.805Z,99.90
2019-06-10T10:50:06.675Z,99.90
2019-06-10T10:55:12.952Z,99.90
2019-06-10T11:00:18.057Z,99.90
2019-06-10T11:05:33.297Z,99.90
2019-06-10T11:10:36.459Z,99.90
2019-06-10T11:15:39.417Z,99.90
2019-06-10T11:20:42.703Z,99.90
2019-06-10T11:25:45.728Z,99.90
2019-06-10T11:30:49.437Z,99.90
2019-06-10T11:35:55.139Z,99.90
2019-06-10T11:40:59.924Z,99.90
2019-06-10T11:46:07.174Z,99.90
2019-06-10T11:51:06.711Z,99.90
2019-06-10T11:56:09.523Z,99.90
2019-06-10T12:01:13.089Z,99.90
2019-06-10T12:06:16.252Z,99.90
2019-06-10T12:11:18.979Z,99.90
2019-06-10T12:17:14.093Z,99.90
2019-06-10T12:21:26.970Z,99.90
2019-06-10T12:26:29.677Z,99.90
2019-06-10T12:31:34.518Z,99.90
2019-06-10T12:36:36.933Z,99.90
2019-06-10T12:41:42.272Z,99.90
2019-06-10T12:46:44.351Z,99.90
2019-06-10T12:51:47.048Z,99.90
2019-06-10T12:56:49.768Z,99.90
2019-06-10T13:01:55.751Z,99.90
2019-06-10T13:07:05.058Z,99.90
2019-06-10T13:12:05.976Z,99.90
2019-06-10T13:17:08.707Z,99.90
2019-06-10T13:22:12.536Z,99.90
2019-06-10T13:27:15.410Z,99.90
2019-06-10T13:32:18.081Z,96.90
2019-06-10T13:37:22.658Z,96.00
2019-06-10T13:42:25.314Z,92.30
2019-06-10T13:47:28.116Z,95.10
2019-06-10T13:52:32.137Z,95.50
2019-06-10T13:57:34.916Z,92.00
2019-06-10T14:02:44.426Z,93.70
2019-06-10T14:07:47.489Z,82.40
2019-06-10T14:12:52.496Z,82.30
2019-06-10T14:17:54.797Z,78.30
2019-06-10T14:22:58.564Z,81.90
2019-06-10T14:28:04.860Z,76.80
2019-06-10T14:33:05.794Z,74.30
2019-06-10T14:38:08.418Z,87.20
2019-06-10T14:43:13.525Z,95.10
2019-06-10T14:48:17.613Z,96.10
2019-06-10T14:53:23.060Z,98.80
2019-06-10T14:58:25.367Z,94.90
2019-06-10T15:03:28.104Z,95.50
2019-06-10T15:08:32.285Z,94.60
2019-06-10T15:13:35.300Z,94.40
2019-06-10T15:18:38.022Z,97.40
2019-06-10T15:23:42.845Z,98.90
2019-06-10T15:28:46.304Z,97.90
2019-06-10T15:33:49.052Z,96.70
2019-06-10T15:38:52.680Z,98.40
2019-06-10T15:43:55.831Z,92.00
2019-06-10T15:49:02.183Z,91.80
2019-06-10T15:54:04.420Z,95.10
2019-06-10T15:59:07.538Z,99.90
2019-06-10T16:04:12.846Z,99.90
2019-06-10T16:09:16.877Z,99.90
2019-06-10T16:14:21.364Z,99.90
2019-06-10T16:19:26.619Z,99.90
2019-06-10T16:24:29.625Z,99.90
2019-06-10T16:29:33.359Z,99.90
2019-06-10T16:34:36.542Z,99.90
2019-06-10T16:39:39.559Z,99.90
2019-06-10T16:44:42.454Z,99.90
2019-06-10T16:49:45.136Z,99.90
2019-06-10T16:54:47.959Z,99.90
2019-06-10T16:59:52.074Z,99.90
2019-06-10T17:04:58.456Z,99.90
2019-06-10T17:10:02.315Z,99.90
2019-06-10T17:15:06.364Z,99.90
2019-06-10T17:20:09.476Z,99.90
2019-06-10T17:25:21.582Z,99.90
2019-06-10T17:30:25.552Z,99.90
2019-06-10T17:35:32.401Z,99.90
2019-06-10T17:40:33.773Z,99.90
2019-06-10T17:45:36.555Z,99.90
2019-06-10T17:50:39.364Z,98.00
2019-06-10T17:55:42.109Z,98.00
2019-06-10T18:00:44.985Z,98.90
2019-06-10T18:05:47.855Z,99.10
2019-06-10T18:10:53.600Z,99.40
2019-06-10T18:15:55.263Z,99.60
2019-06-10T18:20:58.036Z,99.90
2019-06-10T18:26:37.816Z,99.90
2019-06-10T18:31:42.544Z,99.90
2019-06-10T18:36:44.804Z,99.90
2019-06-10T18:41:48.449Z,99.90
2019-06-10T18:46:57.067Z,99.90
2019-06-10T18:52:00.255Z,99.90
2019-06-10T18:57:03.165Z,99.90
2019-06-10T19:02:12.201Z,99.90
2019-06-10T19:07:15.605Z,99.90
2019-06-10T19:12:18.489Z,99.90
2019-06-10T19:17:23.122Z,99.90
2019-06-10T19:22:26.068Z,99.90
2019-06-10T19:27:31.263Z,99.90
2019-06-10T19:32:36.730Z,99.90
2019-06-10T19:37:45.010Z,99.90
2019-06-10T19:42:47.872Z,99.90
2019-06-10T19:47:52.284Z,99.90
2019-06-10T19:52:55.558Z,99.90
2019-06-10T19:57:58.192Z,99.90
2019-06-10T20:03:02.963Z,99.90
2019-06-10T20:08:05.695Z,99.90
2019-06-10T20:13:08.592Z,99.90
2019-06-10T20:18:12.262Z,99.90
2019-06-10T20:23:15.162Z,99.90
2019-06-10T20:28:18.202Z,99.90
2019-06-10T20:33:38.174Z,99.90
2019-06-10T20:38:43.539Z,99.90
2019-06-10T20:43:47.117Z,99.90
2019-06-10T20:48:51.984Z,99.90
2019-06-10T20:53:55.501Z,99.90
2019-06-10T20:58:58.330Z,99.90
2019-06-10T21:04:04.284Z,99.90
2019-06-10T21:09:08.252Z,99.90
2019-06-10T21:14:12.336Z,99.90
2019-06-10T21:19:15.722Z,99.90
2019-06-10T21:24:23.075Z,99.90
2019-06-10T21:29:25.370Z,99.90
2019-06-10T21:34:28.169Z,99.90
2019-06-10T21:39:32.234Z,99.90
2019-06-10T21:44:35.023Z,99.90
2019-06-10T21:49:37.728Z,99.90
2019-06-10T21:54:42.577Z,99.90
2019-06-10T21:59:45.534Z,99.90
2019-06-10T22:04:49.425Z,99.90
2019-06-10T22:09:54.096Z,99.90
2019-06-10T22:14:56.836Z,99.90
2019-06-10T22:19:59.454Z,99.90
2019-06-10T22:25:03.341Z,99.90
2019-06-10T22:30:11.141Z,99.90
2019-06-10T22:35:20.063Z,99.90
2019-06-10T22:40:22.655Z,99.90
2019-06-10T22:45:25.333Z,99.90
2019-06-10T22:50:28.100Z,99.90
2019-06-10T22:55:32.224Z,99.90
2019-06-10T23:00:35.096Z,99.90
2019-06-10T23:05:37.940Z,99.90
2019-06-10T23:10:42.944Z,99.90
2019-06-10T23:15:45.421Z,99.90
2019-06-10T23:20:49.234Z,99.90
2019-06-10T23:25:52.059Z,99.90
2019-06-10T23:30:57.335Z,99.90
2019-06-10T23:36:00.739Z,99.90
2019-06-10T23:41:04.001Z,99.90
2019-06-10T23:46:06.710Z,99.90
2019-06-10T23:51:12.118Z,99.90
2019-06-10T23:56:16.004Z,99.90
